Time;durP1;ratioP1;P1;durP2;ratioP2;P2;SDS_P1;SDS_P2;PMS_P1;PMS_P2;Temp;Humidity;BMP_temperature;BMP_pressure;BME280_temperature;BME280_humidity;BME280_pressure;Samples;Min_cycle;Max_cycle;Signal;HPM_P1;HPM_P2
2022/04/07 00:00:59;;;;;;;5.07;2.53;;;;;;;;;;5007157;28;20109;-62
2022/04/07 00:03:25;;;;;;;2.55;2.13;;;;;;;;;;5004189;28;20029;-62
2022/04/07 00:05:51;;;;;;;2.90;1.95;;;;;;;;;;5004064;28;20069;-62
2022/04/07 00:08:17;;;;;;;4.00;2.30;;;;;;;;;;5003425;28;20018;-62
2022/04/07 00:10:44;;;;;;;2.35;1.80;;;;;;;;;;5004816;28;20109;-62
2022/04/07 00:13:10;;;;;;;3.65;2.10;;;;;;;;;;5004562;28;20036;-62
2022/04/07 00:15:36;;;;;;;4.55;1.83;;;;;;;;;;5001734;28;20022;-62
2022/04/07 00:18:02;;;;;;;3.10;2.08;;;;;;;;;;5003609;28;20110;-62
2022/04/07 00:20:29;;;;;;;5.13;2.33;;;;;;;;;;4985614;28;20033;-62
2022/04/07 00:22:57;;;;;;;3.05;1.80;;;;;;;;;;5004257;28;20085;-62
2022/04/07 00:25:25;;;;;;;2.15;1.67;;;;;;;;;;5001273;28;20034;-62
2022/04/07 00:27:51;;;;;;;6.25;1.83;;;;;;;;;;4979303;28;20076;-62
2022/04/07 00:30:20;;;;;;;6.03;1.77;;;;;;;;;;5002595;28;20436;-61
2022/04/07 00:32:46;;;;;;;3.78;1.80;;;;;;;;;;5004448;28;20056;-62
2022/04/07 00:35:12;;;;;;;3.90;1.83;;;;;;;;;;4988091;28;20076;-62
2022/04/07 00:37:39;;;;;;;3.17;1.73;;;;;;;;;;5004886;28;20472;-62
2022/04/07 00:40:06;;;;;;;4.78;2.00;;;;;;;;;;5004595;28;20504;-62
2022/04/07 00:42:32;;;;;;;3.70;1.88;;;;;;;;;;5002894;28;20026;-62
2022/04/07 00:44:59;;;;;;;2.78;1.90;;;;;;;;;;4986313;28;20037;-62
2022/04/07 00:47:27;;;;;;;2.10;1.90;;;;;;;;;;5003764;28;20030;-62
2022/04/07 00:49:53;;;;;;;3.38;1.90;;;;;;;;;;5005581;28;20034;-61
2022/04/07 00:52:19;;;;;;;6.50;2.00;;;;;;;;;;5004227;28;20061;-61
2022/04/07 00:54:46;;;;;;;6.13;2.05;;;;;;;;;;5003191;28;20030;-61
2022/04/07 00:57:12;;;;;;;5.20;2.00;;;;;;;;;;5002216;28;20163;-62
2022/04/07 00:59:38;;;;;;;5.20;1.92;;;;;;;;;;5000733;28;20215;-62
2022/04/07 01:02:05;;;;;;;4.25;1.98;;;;;;;;;;5001240;28;20105;-61
2022/04/07 01:04:31;;;;;;;3.85;1.60;;;;;;;;;;4998679;28;20029;-62
2022/04/07 01:06:57;;;;;;;6.22;2.00;;;;;;;;;;5004125;28;20076;-62
2022/04/07 01:09:23;;;;;;;4.43;2.08;;;;;;;;;;5003559;28;20109;-63
2022/04/07 01:11:49;;;;;;;7.45;1.80;;;;;;;;;;5002478;28;20030;-61
2022/04/07 01:14:15;;;;;;;5.05;1.70;;;;;;;;;;5005536;28;20022;-61
2022/04/07 01:16:41;;;;;;;2.70;1.58;;;;;;;;;;4999736;28;20052;-62
2022/04/07 01:19:07;;;;;;;8.50;1.85;;;;;;;;;;5000681;28;20030;-62
2022/04/07 01:21:34;;;;;;;4.03;1.60;;;;;;;;;;5005549;28;20037;-62
2022/04/07 01:24:04;;;;;;;5.60;1.58;;;;;;;;;;4985451;28;20386;-61
2022/04/07 01:26:37;;;;;;;4.43;1.65;;;;;;;;;;4998642;28;20390;-61
2022/04/07 01:29:04;;;;;;;4.18;1.50;;;;;;;;;;5001853;28;20401;-61
2022/04/07 01:31:31;;;;;;;6.03;1.83;;;;;;;;;;5000752;28;20033;-61
2022/04/07 01:33:58;;;;;;;5.38;1.67;;;;;;;;;;5003894;28;20045;-61
2022/04/07 01:36:24;;;;;;;5.63;1.90;;;;;;;;;;5005372;28;20025;-62
2022/04/07 01:38:50;;;;;;;7.40;1.63;;;;;;;;;;4996810;28;20041;-62
2022/04/07 01:41:16;;;;;;;5.13;1.67;;;;;;;;;;5001919;28;20041;-61
2022/04/07 01:43:42;;;;;;;3.78;1.40;;;;;;;;;;5008841;28;20061;-62
2022/04/07 01:46:10;;;;;;;4.93;1.60;;;;;;;;;;5003995;28;20494;-61
2022/04/07 01:48:36;;;;;;;5.80;1.35;;;;;;;;;;5004654;28;20034;-61
2022/04/07 01:51:02;;;;;;;5.00;1.63;;;;;;;;;;5004848;28;20034;-62
2022/04/07 01:53:29;;;;;;;4.07;1.50;;;;;;;;;;4986164;28;20014;-61
2022/04/07 01:55:55;;;;;;;4.25;1.40;;;;;;;;;;4998928;28;20062;-62
2022/04/07 01:58:21;;;;;;;5.15;1.33;;;;;;;;;;5004669;28;20525;-61
2022/04/07 02:00:47;;;;;;;2.75;1.45;;;;;;;;;;5003765;28;20417;-62
2022/04/07 02:03:13;;;;;;;5.30;1.75;;;;;;;;;;5002730;28;20022;-61
2022/04/07 02:05:39;;;;;;;4.72;1.60;;;;;;;;;;5003409;28;20426;-61
2022/04/07 02:08:05;;;;;;;5.70;1.55;;;;;;;;;;5003502;28;20559;-62
2022/04/07 02:10:32;;;;;;;4.85;1.50;;;;;;;;;;5003111;28;20026;-62
2022/04/07 02:12:58;;;;;;;4.70;1.50;;;;;;;;;;4988706;28;20507;-62
2022/04/07 02:15:28;;;;;;;4.65;1.48;;;;;;;;;;5006956;28;20044;-62
2022/04/07 02:17:54;;;;;;;3.88;1.50;;;;;;;;;;5007388;28;20038;-62
2022/04/07 02:20:21;;;;;;;2.92;1.50;;;;;;;;;;5006066;28;20411;-61
2022/04/07 02:22:47;;;;;;;3.60;1.80;;;;;;;;;;5000230;28;20033;-62
2022/04/07 02:25:13;;;;;;;5.60;1.42;;;;;;;;;;5006075;28;20041;-62
2022/04/07 02:27:40;;;;;;;4.85;1.63;;;;;;;;;;5003683;28;20034;-62
2022/04/07 02:30:07;;;;;;;4.78;1.92;;;;;;;;;;5002205;28;20030;-62
2022/04/07 02:32:33;;;;;;;8.70;2.30;;;;;;;;;;5005408;28;20076;-62
2022/04/07 02:34:59;;;;;;;6.95;2.20;;;;;;;;;;4989445;28;20026;-62
2022/04/07 02:37:25;;;;;;;5.05;2.00;;;;;;;;;;5001958;28;20029;-62
2022/04/07 02:39:52;;;;;;;6.68;2.10;;;;;;;;;;4988032;28;20393;-63
2022/04/07 02:42:18;;;;;;;5.93;2.30;;;;;;;;;;4996034;28;20356;-63
2022/04/07 02:44:44;;;;;;;4.45;2.33;;;;;;;;;;5008928;28;20034;-62
2022/04/07 02:47:10;;;;;;;4.85;2.20;;;;;;;;;;5002267;28;20158;-62
2022/04/07 02:49:39;;;;;;;5.38;2.38;;;;;;;;;;5004457;28;20038;-62
2022/04/07 02:52:06;;;;;;;4.63;2.45;;;;;;;;;;4987103;28;20030;-62
2022/04/07 02:54:32;;;;;;;5.18;2.35;;;;;;;;;;5003737;28;20064;-63
2022/04/07 02:56:58;;;;;;;5.15;2.13;;;;;;;;;;5000259;28;20054;-62
2022/04/07 02:59:24;;;;;;;5.38;2.22;;;;;;;;;;5005892;28;20056;-62
2022/04/07 03:01:51;;;;;;;5.45;2.00;;;;;;;;;;5002028;28;20026;-62
2022/04/07 03:04:18;;;;;;;6.10;2.00;;;;;;;;;;5006439;28;20022;-62
2022/04/07 03:06:44;;;;;;;9.02;2.00;;;;;;;;;;5003468;28;20060;-62
2022/04/07 03:09:10;;;;;;;5.68;2.00;;;;;;;;;;4999732;28;20068;-63
2022/04/07 03:11:36;;;;;;;4.97;2.10;;;;;;;;;;5002025;28;20033;-62
2022/04/07 03:14:02;;;;;;;2.10;1.40;;;;;;;;;;5003754;28;20029;-62
2022/04/07 03:16:28;;;;;;;4.60;1.77;;;;;;;;;;4999450;28;20030;-62
2022/04/07 03:18:54;;;;;;;7.97;1.80;;;;;;;;;;5000804;28;20030;-62
2022/04/07 03:21:20;;;;;;;5.25;1.80;;;;;;;;;;5006129;28;20677;-62
2022/04/07 03:23:46;;;;;;;6.53;1.83;;;;;;;;;;4997823;28;20185;-62
2022/04/07 03:26:12;;;;;;;3.90;1.42;;;;;;;;;;5003284;28;20397;-62
2022/04/07 03:28:38;;;;;;;6.65;1.77;;;;;;;;;;5003855;28;20446;-62
2022/04/07 03:31:04;;;;;;;6.50;1.52;;;;;;;;;;5004953;28;20109;-62
2022/04/07 03:33:30;;;;;;;7.78;1.75;;;;;;;;;;5002108;28;20690;-62
2022/04/07 03:35:58;;;;;;;4.93;1.45;;;;;;;;;;5000357;28;20033;-62
2022/04/07 03:38:24;;;;;;;6.80;1.60;;;;;;;;;;5002836;28;20022;-62
2022/04/07 03:40:50;;;;;;;8.05;1.85;;;;;;;;;;5007100;28;20029;-62
2022/04/07 03:43:16;;;;;;;5.82;1.50;;;;;;;;;;5004292;28;20057;-62
2022/04/07 03:45:42;;;;;;;6.10;1.50;;;;;;;;;;5004457;28;20041;-62
2022/04/07 03:48:08;;;;;;;6.60;1.30;;;;;;;;;;5001955;28;20069;-62
2022/04/07 03:50:34;;;;;;;4.15;1.75;;;;;;;;;;4986190;28;20450;-62
2022/04/07 03:53:00;;;;;;;6.60;1.75;;;;;;;;;;4998511;28;20355;-62
2022/04/07 03:55:26;;;;;;;9.90;2.03;;;;;;;;;;5003543;28;20092;-62
2022/04/07 03:57:52;;;;;;;5.55;1.67;;;;;;;;;;4996025;28;20042;-62
2022/04/07 04:00:19;;;;;;;3.83;1.50;;;;;;;;;;5003607;28;20028;-62
2022/04/07 04:02:45;;;;;;;4.97;1.35;;;;;;;;;;4999981;28;20026;-61
2022/04/07 04:05:11;;;;;;;8.13;1.63;;;;;;;;;;5002570;28;20052;-62
2022/04/07 04:07:37;;;;;;;7.28;1.45;;;;;;;;;;4997190;28;20113;-62
2022/04/07 04:10:04;;;;;;;6.22;1.65;;;;;;;;;;5000907;28;20462;-62
2022/04/07 04:12:30;;;;;;;3.20;1.10;;;;;;;;;;5002741;28;20033;-62
2022/04/07 04:14:56;;;;;;;6.35;1.50;;;;;;;;;;5001656;28;20116;-61
2022/04/07 04:17:22;;;;;;;8.30;1.55;;;;;;;;;;5001090;28;20109;-62
2022/04/07 04:19:48;;;;;;;8.43;1.77;;;;;;;;;;5004803;28;20025;-61
2022/04/07 04:22:13;;;;;;;5.07;1.27;;;;;;;;;;5006170;28;20014;-62
2022/04/07 04:24:39;;;;;;;4.78;1.33;;;;;;;;;;5004700;28;20061;-62
2022/04/07 04:27:05;;;;;;;5.32;1.40;;;;;;;;;;5003660;28;20540;-62
2022/04/07 04:29:31;;;;;;;3.50;1.33;;;;;;;;;;5004999;28;20040;-62
2022/04/07 04:31:57;;;;;;;7.45;1.50;;;;;;;;;;5002858;28;20033;-62
2022/04/07 04:34:23;;;;;;;4.78;1.73;;;;;;;;;;5001044;28;20018;-62
2022/04/07 04:36:49;;;;;;;3.35;1.38;;;;;;;;;;5002289;28;20021;-62
2022/04/07 04:39:15;;;;;;;3.25;1.40;;;;;;;;;;5004075;28;20037;-62
2022/04/07 04:41:41;;;;;;;7.82;1.58;;;;;;;;;;5002246;28;20029;-62
2022/04/07 04:44:07;;;;;;;4.68;1.80;;;;;;;;;;5003241;28;20140;-63
2022/04/07 04:46:33;;;;;;;4.82;1.60;;;;;;;;;;4982077;28;20038;-62
2022/04/07 04:48:59;;;;;;;3.50;1.65;;;;;;;;;;4986135;28;20168;-62
2022/04/07 04:51:25;;;;;;;3.55;1.90;;;;;;;;;;5004714;28;20029;-63
2022/04/07 04:53:51;;;;;;;5.68;1.98;;;;;;;;;;5005646;28;20486;-63
2022/04/07 04:56:17;;;;;;;5.45;2.28;;;;;;;;;;5001567;28;20018;-63
2022/04/07 04:58:43;;;;;;;5.38;2.22;;;;;;;;;;4993156;28;20048;-63
2022/04/07 05:01:09;;;;;;;4.43;2.45;;;;;;;;;;4982882;28;20023;-62
2022/04/07 05:03:35;;;;;;;4.63;2.05;;;;;;;;;;5002576;28;20034;-62
2022/04/07 05:06:01;;;;;;;2.83;2.00;;;;;;;;;;5000746;28;20105;-62
2022/04/07 05:08:27;;;;;;;6.13;2.40;;;;;;;;;;4999254;28;20072;-63
2022/04/07 05:10:53;;;;;;;4.32;2.45;;;;;;;;;;4997891;28;20029;-62
2022/04/07 05:13:21;;;;;;;6.60;2.50;;;;;;;;;;4983069;28;20508;-62
2022/04/07 05:15:47;;;;;;;5.13;2.17;;;;;;;;;;5003844;28;20026;-62
2022/04/07 05:18:13;;;;;;;6.25;2.80;;;;;;;;;;5005140;28;20034;-62
2022/04/07 05:20:45;;;;;;;4.65;2.38;;;;;;;;;;5001812;28;20029;-62
2022/04/07 05:23:11;;;;;;;4.93;2.70;;;;;;;;;;5004244;28;20124;-62
2022/04/07 05:25:37;;;;;;;5.40;2.33;;;;;;;;;;5000387;28;20034;-62
2022/04/07 05:28:03;;;;;;;4.20;2.65;;;;;;;;;;5001289;28;20058;-62
2022/04/07 05:30:29;;;;;;;4.55;2.30;;;;;;;;;;5001866;28;20402;-61
2022/04/07 05:32:55;;;;;;;4.18;2.08;;;;;;;;;;4988112;28;20060;-62
2022/04/07 05:35:26;;;;;;;3.80;2.15;;;;;;;;;;5001918;28;20466;-62
2022/04/07 05:37:56;;;;;;;4.88;2.42;;;;;;;;;;5004366;28;20061;-62
2022/04/07 05:40:23;;;;;;;4.88;1.80;;;;;;;;;;5001459;28;20030;-62
2022/04/07 05:42:49;;;;;;;4.93;1.90;;;;;;;;;;5001308;28;20109;-62
2022/04/07 05:45:15;;;;;;;5.15;1.70;;;;;;;;;;5004331;28;20106;-62
2022/04/07 05:47:41;;;;;;;2.70;1.60;;;;;;;;;;5006278;28;20033;-62
2022/04/07 05:50:07;;;;;;;2.35;1.25;;;;;;;;;;5003149;28;21132;-62
2022/04/07 05:52:33;;;;;;;2.80;1.55;;;;;;;;;;5001149;28;20038;-63
2022/04/07 05:54:59;;;;;;;1.92;1.45;;;;;;;;;;5001993;28;20036;-63
2022/04/07 05:57:31;;;;;;;1.95;1.30;;;;;;;;;;5006241;28;20022;-62
2022/04/07 06:00:04;;;;;;;3.60;1.45;;;;;;;;;;5003235;28;20057;-63
2022/04/07 06:02:30;;;;;;;2.90;1.50;;;;;;;;;;5004386;28;20028;-63
2022/04/07 06:04:56;;;;;;;2.00;1.50;;;;;;;;;;4984231;28;20022;-62
2022/04/07 06:07:22;;;;;;;1.92;1.25;;;;;;;;;;5000514;28;20041;-63
2022/04/07 06:09:48;;;;;;;2.55;1.48;;;;;;;;;;4986552;28;20026;-62
2022/04/07 06:12:14;;;;;;;4.35;1.20;;;;;;;;;;5003367;28;20425;-63
2022/04/07 06:14:40;;;;;;;3.20;1.45;;;;;;;;;;4990291;28;20033;-63
2022/04/07 06:17:09;;;;;;;1.92;1.40;;;;;;;;;;5003218;28;20033;-63
2022/04/07 06:19:35;;;;;;;1.80;1.23;;;;;;;;;;5001512;28;20537;-63
2022/04/07 06:22:01;;;;;;;4.57;1.40;;;;;;;;;;4989454;28;20129;-63
2022/04/07 06:24:27;;;;;;;3.25;1.30;;;;;;;;;;5004036;28;20045;-63
2022/04/07 06:26:53;;;;;;;5.05;1.00;;;;;;;;;;4997509;28;20046;-64
2022/04/07 06:29:19;;;;;;;4.43;1.25;;;;;;;;;;4984060;28;20435;-63
2022/04/07 06:31:45;;;;;;;1.65;1.20;;;;;;;;;;5005553;28;20041;-63
2022/04/07 06:34:11;;;;;;;2.30;0.90;;;;;;;;;;5002933;28;20018;-63
2022/04/07 06:36:37;;;;;;;3.17;0.95;;;;;;;;;;5003111;28;20546;-63
2022/04/07 06:39:03;;;;;;;2.75;0.95;;;;;;;;;;4999938;28;20686;-63
2022/04/07 06:41:29;;;;;;;3.35;1.00;;;;;;;;;;5005703;28;20109;-63
2022/04/07 06:43:55;;;;;;;3.10;0.98;;;;;;;;;;5007059;28;20096;-62
2022/04/07 06:46:22;;;;;;;3.67;0.82;;;;;;;;;;5004660;28;20041;-63
2022/04/07 06:48:48;;;;;;;3.85;0.90;;;;;;;;;;4982159;28;20083;-62
2022/04/07 06:51:14;;;;;;;1.63;0.65;;;;;;;;;;5004996;28;20556;-62
2022/04/07 06:53:40;;;;;;;3.85;1.00;;;;;;;;;;4999911;28;20026;-62
2022/04/07 06:56:08;;;;;;;1.80;0.80;;;;;;;;;;5002737;28;20052;-62
2022/04/07 06:58:34;;;;;;;4.63;1.10;;;;;;;;;;5001443;28;20022;-63
2022/04/07 07:01:00;;;;;;;3.45;1.00;;;;;;;;;;5002406;28;20040;-62
2022/04/07 07:03:28;;;;;;;2.25;1.00;;;;;;;;;;5004638;28;20025;-62
2022/04/07 07:05:58;;;;;;;3.72;1.05;;;;;;;;;;5004706;28;20030;-62
2022/04/07 07:08:24;;;;;;;2.78;0.80;;;;;;;;;;5001851;28;20151;-62
2022/04/07 07:10:50;;;;;;;2.78;0.82;;;;;;;;;;5004631;28;20184;-62
2022/04/07 07:13:17;;;;;;;2.05;0.80;;;;;;;;;;5002024;28;20026;-62
2022/04/07 07:15:43;;;;;;;3.72;1.00;;;;;;;;;;4986333;28;20088;-63
2022/04/07 07:18:10;;;;;;;2.85;1.30;;;;;;;;;;4985208;28;20037;-63
2022/04/07 07:20:36;;;;;;;3.60;1.20;;;;;;;;;;4986735;28;20583;-64
2022/04/07 07:23:02;;;;;;;2.35;1.00;;;;;;;;;;5001743;28;20248;-64
2022/04/07 07:25:31;;;;;;;3.45;1.10;;;;;;;;;;5002614;28;20049;-64
2022/04/07 07:27:57;;;;;;;2.70;1.00;;;;;;;;;;5002881;28;21057;-65
2022/04/07 07:30:23;;;;;;;3.58;0.95;;;;;;;;;;4998279;28;20022;-64
2022/04/07 07:32:51;;;;;;;2.40;1.10;;;;;;;;;;5000327;28;20022;-65
2022/04/07 07:35:17;;;;;;;3.33;1.05;;;;;;;;;;4998224;28;20018;-65
2022/04/07 07:37:53;;;;;;;2.58;0.80;;;;;;;;;;5004617;28;20022;-64
2022/04/07 07:40:21;;;;;;;3.08;0.90;;;;;;;;;;4999640;28;20053;-65
2022/04/07 07:42:47;;;;;;;1.80;0.93;;;;;;;;;;5000870;28;20030;-64
2022/04/07 07:45:13;;;;;;;3.65;0.80;;;;;;;;;;5002069;28;20037;-64
2022/04/07 07:47:39;;;;;;;2.42;0.85;;;;;;;;;;5003178;28;20042;-64
2022/04/07 07:50:06;;;;;;;1.42;0.75;;;;;;;;;;4998667;28;20396;-64
2022/04/07 07:52:32;;;;;;;1.63;0.70;;;;;;;;;;4985396;28;20691;-65
2022/04/07 07:54:58;;;;;;;1.50;0.82;;;;;;;;;;4981225;28;20037;-65
2022/04/07 07:57:23;;;;;;;4.03;0.70;;;;;;;;;;4997065;28;20022;-65
2022/04/07 07:59:51;;;;;;;3.03;0.90;;;;;;;;;;5003018;28;20038;-65
2022/04/07 08:02:17;;;;;;;2.22;0.63;;;;;;;;;;5001398;28;20045;-64
2022/04/07 08:04:43;;;;;;;1.27;0.60;;;;;;;;;;5003346;28;20117;-64
2022/04/07 08:07:09;;;;;;;1.15;0.63;;;;;;;;;;5000975;28;20116;-64
2022/04/07 08:09:34;;;;;;;2.00;0.60;;;;;;;;;;4982683;28;20044;-63
2022/04/07 08:12:02;;;;;;;1.95;0.80;;;;;;;;;;4997433;28;20043;-64
2022/04/07 08:14:28;;;;;;;1.08;0.63;;;;;;;;;;4982577;28;20065;-64
2022/04/07 08:16:54;;;;;;;2.42;0.70;;;;;;;;;;4981901;28;20025;-63
2022/04/07 08:19:20;;;;;;;1.80;0.57;;;;;;;;;;5000168;28;20120;-63
2022/04/07 08:21:47;;;;;;;2.38;0.60;;;;;;;;;;5003409;28;20044;-63
2022/04/07 08:24:13;;;;;;;0.80;0.50;;;;;;;;;;5002276;28;20556;-63
2022/04/07 08:26:39;;;;;;;2.90;0.60;;;;;;;;;;5002434;28;20058;-63
2022/04/07 08:29:05;;;;;;;1.13;0.30;;;;;;;;;;4994285;28;20065;-63
2022/04/07 08:31:31;;;;;;;2.92;0.50;;;;;;;;;;4980032;28;20445;-63
2022/04/07 08:33:56;;;;;;;1.73;0.50;;;;;;;;;;4997661;28;20048;-63
2022/04/07 08:36:22;;;;;;;0.88;0.50;;;;;;;;;;5001088;28;20113;-64
2022/04/07 08:38:48;;;;;;;0.40;0.40;;;;;;;;;;5001241;28;20560;-64
2022/04/07 08:41:15;;;;;;;1.63;0.40;;;;;;;;;;5000899;28;20030;-64
2022/04/07 08:43:42;;;;;;;0.38;0.30;;;;;;;;;;5003901;28;20079;-64
2022/04/07 08:46:09;;;;;;;0.35;0.25;;;;;;;;;;5001848;28;20030;-65
2022/04/07 08:48:42;;;;;;;0.85;0.40;;;;;;;;;;5000839;28;20041;-64
2022/04/07 08:51:08;;;;;;;1.30;0.40;;;;;;;;;;5000082;28;20026;-64
2022/04/07 08:53:34;;;;;;;1.17;0.47;;;;;;;;;;5007501;28;20489;-64
2022/04/07 08:56:04;;;;;;;1.42;0.40;;;;;;;;;;5001114;28;20473;-64
2022/04/07 08:58:30;;;;;;;0.30;0.30;;;;;;;;;;5003147;28;20555;-64
2022/04/07 09:00:56;;;;;;;0.60;0.40;;;;;;;;;;5003865;28;20358;-65
2022/04/07 09:03:23;;;;;;;1.23;0.43;;;;;;;;;;5002708;28;20033;-65
2022/04/07 09:06:06;;;;;;;0.60;0.40;;;;;;;;;;5005213;28;20379;-65
2022/04/07 09:08:37;;;;;;;8.48;1.10;;;;;;;;;;4987215;28;20127;-65
2022/04/07 09:11:05;;;;;;;4.13;0.90;;;;;;;;;;5004351;28;20076;-65
2022/04/07 09:13:35;;;;;;;2.78;0.80;;;;;;;;;;4984902;28;20116;-65
2022/04/07 09:16:05;;;;;;;2.65;0.60;;;;;;;;;;4989237;28;20040;-63
2022/04/07 09:18:38;;;;;;;1.08;0.50;;;;;;;;;;5008302;28;20023;-62
2022/04/07 09:21:04;;;;;;;2.75;0.52;;;;;;;;;;5006928;28;20489;-64
2022/04/07 09:23:40;;;;;;;2.05;0.50;;;;;;;;;;5000660;28;20049;-64
2022/04/07 09:26:11;;;;;;;4.57;0.60;;;;;;;;;;5001322;28;20050;-63
2022/04/07 09:28:37;;;;;;;2.65;0.47;;;;;;;;;;5002497;28;20037;-65
2022/04/07 09:31:03;;;;;;;3.10;0.55;;;;;;;;;;5007425;28;20072;-64
2022/04/07 09:33:29;;;;;;;2.63;0.40;;;;;;;;;;5003726;28;20513;-65
2022/04/07 09:35:58;;;;;;;1.35;0.50;;;;;;;;;;5003905;28;20171;-65
2022/04/07 09:38:25;;;;;;;0.90;0.43;;;;;;;;;;5006566;28;20474;-63
2022/04/07 09:40:51;;;;;;;3.90;0.70;;;;;;;;;;4986354;28;20529;-64
2022/04/07 09:43:18;;;;;;;1.55;0.65;;;;;;;;;;5003053;28;20143;-64
2022/04/07 09:45:45;;;;;;;1.42;0.50;;;;;;;;;;5000144;28;20034;-65
2022/04/07 09:48:17;;;;;;;2.50;0.90;;;;;;;;;;4988814;28;20026;-64
2022/04/07 09:50:43;;;;;;;1.23;0.80;;;;;;;;;;4984877;28;20026;-65
2022/04/07 09:53:09;;;;;;;3.75;1.15;;;;;;;;;;5005374;28;20037;-65
2022/04/07 09:55:36;;;;;;;2.35;1.10;;;;;;;;;;4987280;28;20148;-65
2022/04/07 09:58:03;;;;;;;2.13;1.10;;;;;;;;;;5003030;28;20034;-65
2022/04/07 10:00:29;;;;;;;2.33;1.35;;;;;;;;;;5005978;28;20034;-64
2022/04/07 10:02:56;;;;;;;3.97;1.27;;;;;;;;;;5003514;28;20478;-64
2022/04/07 10:05:23;;;;;;;1.83;1.20;;;;;;;;;;5002334;28;20440;-64
2022/04/07 10:07:50;;;;;;;2.88;1.50;;;;;;;;;;5003460;28;20083;-65
2022/04/07 10:10:18;;;;;;;2.90;1.42;;;;;;;;;;5007150;28;20149;-64
2022/04/07 10:12:46;;;;;;;2.58;1.35;;;;;;;;;;4985185;28;20050;-64
2022/04/07 10:15:12;;;;;;;5.40;1.65;;;;;;;;;;5003264;28;20557;-64
2022/04/07 10:17:38;;;;;;;4.03;1.80;;;;;;;;;;4984935;28;20026;-64
2022/04/07 10:20:09;;;;;;;2.10;1.85;;;;;;;;;;5003456;28;20509;-63
2022/04/07 10:22:54;;;;;;;2.55;1.70;;;;;;;;;;5004538;28;20057;-63
2022/04/07 10:25:20;;;;;;;4.15;2.10;;;;;;;;;;4987965;28;20053;-63
2022/04/07 10:27:49;;;;;;;3.33;1.85;;;;;;;;;;5000279;28;20049;-63
2022/04/07 10:30:16;;;;;;;3.17;2.05;;;;;;;;;;4987325;28;20033;-63
2022/04/07 10:32:46;;;;;;;2.80;1.65;;;;;;;;;;5002438;28;20025;-63
2022/04/07 10:35:35;;;;;;;3.13;1.58;;;;;;;;;;5003759;28;20059;-63
2022/04/07 10:38:02;;;;;;;1.02;0.93;;;;;;;;;;5000770;28;20030;-64
2022/04/07 10:40:51;;;;;;;1.73;1.10;;;;;;;;;;4987901;28;20045;-64
2022/04/07 10:43:18;;;;;;;1.95;0.98;;;;;;;;;;4986567;28;20030;-63
2022/04/07 10:45:46;;;;;;;1.50;0.75;;;;;;;;;;4988376;28;20136;-63
2022/04/07 10:48:24;;;;;;;0.52;0.50;;;;;;;;;;5005576;28;20437;-64
2022/04/07 10:51:00;;;;;;;1.65;0.75;;;;;;;;;;5005221;28;20014;-64
2022/04/07 10:53:29;;;;;;;2.72;1.42;;;;;;;;;;5004854;28;20021;-64
2022/04/07 10:56:02;;;;;;;1.65;0.80;;;;;;;;;;5001660;28;20026;-64
2022/04/07 10:58:38;;;;;;;1.45;0.88;;;;;;;;;;5005190;28;20032;-64
2022/04/07 11:01:05;;;;;;;3.03;0.75;;;;;;;;;;5004327;28;20061;-64
2022/04/07 11:03:31;;;;;;;1.15;0.75;;;;;;;;;;5002543;28;20105;-64
2022/04/07 11:06:00;;;;;;;1.45;0.70;;;;;;;;;;5000779;28;20034;-63
2022/04/07 11:08:30;;;;;;;2.47;0.90;;;;;;;;;;5001417;28;20112;-63
2022/04/07 11:10:56;;;;;;;1.92;1.00;;;;;;;;;;4996410;28;20026;-63
2022/04/07 11:13:41;;;;;;;1.17;0.73;;;;;;;;;;5004234;28;20022;-63
2022/04/07 11:16:14;;;;;;;2.15;0.68;;;;;;;;;;4977128;28;20030;-63
2022/04/07 11:18:41;;;;;;;;;;;;;;;;;;5003496;28;20477;-63
2022/04/07 11:21:11;;;;;;;3.63;0.80;;;;;;;;;;5002457;28;20003;-63
2022/04/07 11:23:44;;;;;;;1.83;0.70;;;;;;;;;;5002894;28;20536;-63
2022/04/07 11:26:11;;;;;;;3.80;0.80;;;;;;;;;;5004146;28;20069;-63
2022/04/07 11:28:40;;;;;;;2.78;0.63;;;;;;;;;;5005699;28;20045;-63
2022/04/07 11:31:07;;;;;;;3.03;0.77;;;;;;;;;;5001190;28;20446;-63
2022/04/07 11:33:36;;;;;;;2.90;0.85;;;;;;;;;;5006018;28;20029;-63
2022/04/07 11:36:02;;;;;;;3.88;0.73;;;;;;;;;;5003072;28;20033;-63
2022/04/07 11:38:48;;;;;;;2.63;0.70;;;;;;;;;;4981464;28;20116;-63
2022/04/07 11:41:15;;;;;;;2.25;0.70;;;;;;;;;;5000667;28;20030;-63
2022/04/07 11:43:43;;;;;;;4.25;0.90;;;;;;;;;;5003614;28;20029;-63
2022/04/07 11:46:09;;;;;;;2.13;0.90;;;;;;;;;;4998828;28;20034;-63
2022/04/07 11:48:36;;;;;;;5.10;1.08;;;;;;;;;;5003533;28;20037;-63
2022/04/07 11:51:09;;;;;;;3.75;0.93;;;;;;;;;;5003792;28;20068;-63
2022/04/07 11:53:35;;;;;;;3.63;0.85;;;;;;;;;;5000606;28;20040;-63
2022/04/07 11:56:16;;;;;;;3.42;1.15;;;;;;;;;;5001409;28;20033;-63
2022/04/07 11:58:42;;;;;;;2.97;0.95;;;;;;;;;;5004339;28;20030;-63
2022/04/07 12:01:11;;;;;;;6.35;0.93;;;;;;;;;;5000864;28;20141;-64
2022/04/07 12:03:40;;;;;;;3.95;0.98;;;;;;;;;;5000172;28;20426;-63
2022/04/07 12:06:06;;;;;;;5.90;0.85;;;;;;;;;;5002540;28;20025;-63
2022/04/07 12:08:33;;;;;;;7.40;1.00;;;;;;;;;;5000669;28;20711;-63
2022/04/07 12:10:59;;;;;;;4.55;1.05;;;;;;;;;;5001766;28;20026;-63
2022/04/07 12:13:25;;;;;;;4.15;0.90;;;;;;;;;;5001484;28;21043;-63
2022/04/07 12:15:51;;;;;;;3.22;1.05;;;;;;;;;;5001323;28;20042;-63
2022/04/07 12:18:27;;;;;;;4.28;1.02;;;;;;;;;;5001911;28;20030;-64
2022/04/07 12:20:59;;;;;;;3.58;1.02;;;;;;;;;;5002088;28;20080;-64
2022/04/07 12:23:26;;;;;;;6.85;1.25;;;;;;;;;;5003385;28;20030;-63
2022/04/07 12:25:57;;;;;;;6.38;1.77;;;;;;;;;;4981769;28;20029;-63
2022/04/07 12:28:23;;;;;;;6.32;1.67;;;;;;;;;;5001527;28;20033;-63
2022/04/07 12:30:53;;;;;;;7.47;2.08;;;;;;;;;;5004161;28;20465;-64
2022/04/07 12:33:40;;;;;;;7.93;1.92;;;;;;;;;;4984459;28;20500;-65
2022/04/07 12:36:11;;;;;;;11.45;2.50;;;;;;;;;;4998830;28;20021;-65
2022/04/07 12:38:38;;;;;;;9.85;2.33;;;;;;;;;;4999078;28;20056;-65
2022/04/07 12:41:15;;;;;;;11.75;2.05;;;;;;;;;;5000742;28;20401;-64
2022/04/07 12:43:44;;;;;;;10.10;2.50;;;;;;;;;;5001463;28;20485;-64
2022/04/07 12:46:10;;;;;;;12.75;2.10;;;;;;;;;;4999987;28;20046;-64
2022/04/07 12:48:37;;;;;;;10.55;2.53;;;;;;;;;;5002301;28;20065;-64
2022/04/07 12:51:21;;;;;;;9.40;2.03;;;;;;;;;;5001741;28;20022;-66
2022/04/07 12:53:47;;;;;;;10.70;2.50;;;;;;;;;;5002196;28;20037;-66
2022/04/07 12:56:20;;;;;;;12.88;2.53;;;;;;;;;;4999907;28;20022;-66
2022/04/07 12:58:46;;;;;;;11.80;2.30;;;;;;;;;;4983611;28;20389;-65
2022/04/07 13:01:21;;;;;;;9.30;2.33;;;;;;;;;;4999934;28;20612;-64
2022/04/07 13:03:51;;;;;;;8.52;1.95;;;;;;;;;;5003817;28;20493;-64
2022/04/07 13:06:17;;;;;;;6.78;2.05;;;;;;;;;;5002614;28;20049;-65
2022/04/07 13:08:43;;;;;;;4.88;1.90;;;;;;;;;;5002719;28;20442;-64
2022/04/07 13:11:09;;;;;;;9.40;2.45;;;;;;;;;;4999496;28;20429;-64
2022/04/07 13:13:35;;;;;;;7.93;1.92;;;;;;;;;;5002979;28;20086;-64
2022/04/07 13:16:01;;;;;;;11.30;3.08;;;;;;;;;;5000124;28;20041;-64
2022/04/07 13:18:27;;;;;;;9.30;2.53;;;;;;;;;;5004137;28;20080;-64
2022/04/07 13:20:53;;;;;;;9.15;2.38;;;;;;;;;;5001025;28;20433;-64
2022/04/07 13:23:19;;;;;;;9.57;2.10;;;;;;;;;;4999068;28;20042;-65
2022/04/07 13:25:45;;;;;;;10.05;2.25;;;;;;;;;;5002665;28;20033;-63
2022/04/07 13:28:11;;;;;;;7.78;2.17;;;;;;;;;;4999140;28;20018;-63
2022/04/07 13:30:38;;;;;;;5.57;1.75;;;;;;;;;;5002470;28;20033;-63
2022/04/07 13:33:04;;;;;;;8.75;2.00;;;;;;;;;;5000876;28;20021;-63
2022/04/07 13:35:29;;;;;;;5.05;2.10;;;;;;;;;;4986688;28;20064;-63
2022/04/07 13:37:58;;;;;;;9.60;1.88;;;;;;;;;;4985834;28;20025;-63
2022/04/07 13:40:26;;;;;;;9.13;2.33;;;;;;;;;;5004247;28;20052;-62
2022/04/07 13:42:52;;;;;;;12.27;2.75;;;;;;;;;;5002383;28;20025;-62
2022/04/07 13:45:18;;;;;;;7.63;1.63;;;;;;;;;;5004531;28;20056;-63
2022/04/07 13:47:44;;;;;;;9.63;1.85;;;;;;;;;;5004105;28;20049;-63
2022/04/07 13:50:10;;;;;;;5.43;1.20;;;;;;;;;;5007138;28;20023;-63
2022/04/07 13:52:36;;;;;;;4.32;1.25;;;;;;;;;;5003645;28;20509;-63
2022/04/07 13:55:02;;;;;;;7.45;1.50;;;;;;;;;;5005332;28;20021;-63
2022/04/07 13:57:28;;;;;;;6.68;2.13;;;;;;;;;;5002535;28;20052;-63
2022/04/07 13:59:54;;;;;;;6.85;2.28;;;;;;;;;;5006972;28;20717;-63
2022/04/07 14:02:20;;;;;;;11.02;2.75;;;;;;;;;;5004331;28;20045;-62
2022/04/07 14:04:46;;;;;;;8.45;1.92;;;;;;;;;;5005936;28;20041;-62
2022/04/07 14:07:12;;;;;;;8.68;1.70;;;;;;;;;;5000999;28;20056;-62
2022/04/07 14:09:38;;;;;;;10.88;1.98;;;;;;;;;;5001866;28;20084;-62
2022/04/07 14:12:04;;;;;;;8.80;1.92;;;;;;;;;;4984895;28;20034;-62
2022/04/07 14:14:31;;;;;;;7.40;1.55;;;;;;;;;;5006362;28;20022;-62
2022/04/07 14:16:57;;;;;;;7.47;1.42;;;;;;;;;;5001543;28;20070;-62
2022/04/07 14:19:23;;;;;;;4.00;1.20;;;;;;;;;;4995692;28;20065;-62
2022/04/07 14:21:50;;;;;;;8.77;1.50;;;;;;;;;;5004979;28;20036;-63
2022/04/07 14:24:16;;;;;;;5.70;1.50;;;;;;;;;;5006200;28;20100;-63
2022/04/07 14:26:42;;;;;;;6.60;1.40;;;;;;;;;;5005282;28;20446;-62
2022/04/07 14:29:08;;;;;;;5.93;1.50;;;;;;;;;;5006738;28;20037;-62
2022/04/07 14:31:35;;;;;;;7.38;1.33;;;;;;;;;;5004829;28;20025;-63
2022/04/07 14:34:03;;;;;;;7.60;1.80;;;;;;;;;;5002795;28;20465;-62
2022/04/07 14:36:29;;;;;;;11.30;1.80;;;;;;;;;;5003920;28;20702;-62
2022/04/07 14:38:55;;;;;;;5.47;1.48;;;;;;;;;;4999849;28;20041;-62
2022/04/07 14:41:22;;;;;;;8.82;2.10;;;;;;;;;;5005489;28;20049;-62
2022/04/07 14:43:48;;;;;;;9.80;1.88;;;;;;;;;;5002462;28;20025;-62